Observations for LONDON GATWICK ARPT, United Kingdom (EGKK)

EGKK 201650Z 23009KT 9999 FEW026 SCT033 23/17 Q1019 
EGKK 201620Z 22008KT 170V260 9999 SCT028 23/17 Q1019
EGKK 201550Z 22007KT 180V260 9999 SCT025 BKN035 24/17 Q1019 
EGKK 201520Z 23010KT 190V250 9999 FEW024 BKN030 23/16 Q1019 
EGKK 201450Z 23010KT 9999 BKN024 23/16 Q1020
EGKK 201420Z 22010KT 190V260 9999 SCT023 23/16 Q1020
EGKK 201350Z 23010KT 190V260 9999 SCT018 BKN023 22/16 Q1020 
EGKK 201320Z 23009KT 180V270 9999 BKN017 21/16 Q1020
EGKK 201250Z 22008KT 190V260 9999 BKN017 20/16 Q1021
EGKK 201220Z 23007KT 180V270 9999 BKN016 20/16 Q1021
EGKK 201150Z 23007KT 180V270 9999 BKN011 19/16 Q1021
EGKK 201120Z 23008KT 9999 BKN010 18/15 Q1021
EGKK 201050Z 22008KT 9999 BKN011 18/15 Q1021
EGKK 201020Z 21007KT 170V250 9999 BKN009 17/15 Q1021
EGKK 200950Z 21007KT 150V250 9999 BKN008 17/15 Q1021
EGKK 200920Z 22007KT 190V250 9999 BKN007 16/15 Q1022
EGKK 200850Z 21008KT 170V240 9999 BKN007 16/14 Q1021
EGKK 200820Z 22008KT 9999 BKN006 16/14 Q1022
EGKK 200750Z 22008KT 9999 BKN005 15/14 Q1022
EGKK 200720Z 22007KT 170V250 9999 BKN004 15/14 Q1022
EGKK 200650Z 22007KT 190V260 9999 BKN005 16/15 Q1022
EGKK 200620Z 22007KT 9999 BKN005 15/15 Q1022
EGKK 200550Z 22006KT 180V240 6000 BKN004 15/15 Q1021
EGKK 200520Z 21007KT 180V240 3800 BR BKN003 15/15 Q1021 
EGKK 200450Z 21006KT 170V250 2100 BR BKN003 15/15 Q1021 
EGKK 200420Z 21006KT 180V240 1000 R26L/P1500 BR BKN002 15/15 Q1021  
EGKK 200350Z 21005KT 1100 R26L/P1500 BR BKN002 15/15 Q1021  
EGKK 200320Z 21007KT 1100 R26L/P1500 BR BKN001 15/15 Q1022  
EGKK 200250Z 20005KT 0900 R26L/P1500 FG BKN001 15/15 Q1022  
EGKK 200220Z 20005KT 170V230 1500 BR BKN002 15/15 Q1022 
EGKK 200150Z 19004KT 160V230 2300 BR BKN002 15/15 Q1022 
EGKK 200120Z 20005KT 3700 BR BKN002 15/15 Q1022 
EGKK 200050Z 19004KT 7000 2000W BKN004 15/14 Q1022  
EGKK 200020Z 19003KT CAVOK 15/14 Q1022  
EGKK 192350Z VRB02KT CAVOK 15/14 Q1023  
EGKK 192320Z 21003KT CAVOK 15/14 Q1023  
EGKK 192250Z 20004KT CAVOK 16/15 Q1023  
EGKK 192220Z 20004KT 160V220 CAVOK 16/15 Q1023  
EGKK 192150Z 20005KT CAVOK 17/15 Q1023  
EGKK 192120Z 21005KT CAVOK 17/15 Q1023  
EGKK 192050Z 22004KT 190V250 CAVOK 18/15 Q1023  
EGKK 192020Z 20005KT 140V240 CAVOK 18/16 Q1023  
EGKK 191950Z 21006KT CAVOK 19/16 Q1022  
EGKK 191920Z 22009KT CAVOK 20/16 Q1022  
EGKK 191850Z 21008KT 9999 FEW023 21/16 Q1023
EGKK 191820Z 23009KT 9999 FEW024 21/16 Q1023
EGKK 191750Z 22009KT 180V260 9999 FEW021 21/16 Q1023
EGKK 191720Z 21009KT 9999 SCT022 22/17 Q1023
EGKK 191650Z 22009KT 180V250 9999 SCT023 23/17 Q1023
EGKK 191620Z 20009KT 9999 SCT022 22/17 Q1023